»·PEaware :: N2091 KSNA-KCRQ

N2091 :: KSNA-KCRQ

FLIGHT INFORMATION

Flight Status: Arrived
Operator: Privately registered:
United States
More flights under this callsign
Pilot: Xavier R. (25586)
Aircraft: CESSNA 172 SKYHAWK
(C172)
More flights by this aircraft type
Origin: KSNA John Wayne-Orange Co
United States
Destination: KCRQ McClellan-Palomar
United States
More flights between these airports :: More routes between these airports
Route: V23 OCN
File this flight plan on PilotEdge
Remarks: I-2
Altitude:
(Current/Filed)
5,000ft
Speed:
(Current/Filed)
120kts
Departed: 13-Aug-19 04:46 PM
Arrived: 13-Aug-19 05:28 PM
Distance/Time
Traveled:
44nm/0:42
Distance/Time
To Go:
Arrived

Flight Plot

Page will automatically refresh every two minutes.


Map Options




Map Legend


Flown Route
Filed Route
Departure Airport
Arrival Airport
Navaid (VOR, NDB)
Fix

Horizontal Profiles

Position Reports

Time Latitude Longitude Heading Altitude Ground
Speed
13-Aug-19 16:28 33.672446 -117.867192 208 60ft 0kts
13-Aug-19 16:29 33.672446 -117.867192 208 60ft 0kts
13-Aug-19 16:30 33.672446 -117.867192 208 60ft 0kts
13-Aug-19 16:31 33.672446 -117.867192 208 60ft 0kts
13-Aug-19 16:32 33.672446 -117.867192 208 60ft 0kts
13-Aug-19 16:33 33.672446 -117.867192 208 60ft 0kts
13-Aug-19 16:34 33.672446 -117.867192 208 60ft 0kts
13-Aug-19 16:35 33.672446 -117.867192 208 60ft 0kts
13-Aug-19 16:36 33.672446 -117.867192 208 60ft 0kts
13-Aug-19 16:37 33.672446 -117.867192 208 60ft 0kts
13-Aug-19 16:38 33.672391 -117.867534 294 60ft 8kts
13-Aug-19 16:39 33.673109 -117.867947 10 60ft 0kts
13-Aug-19 16:40 33.673109 -117.867947 10 60ft 0kts
13-Aug-19 16:41 33.673892 -117.867248 33 60ft 14kts
13-Aug-19 16:42 33.678582 -117.864287 27 60ft 20kts
13-Aug-19 16:43 33.679974 -117.863626 289 60ft 0kts
13-Aug-19 16:44 33.680015 -117.863732 293 60ft 5kts
13-Aug-19 16:45 33.667165 -117.871701 188 556ft 80kts
13-Aug-19 16:46 33.645541 -117.873825 186 1592ft 77kts
13-Aug-19 16:47 33.623680 -117.875967 186 2524ft 80kts
13-Aug-19 16:48 33.601509 -117.878440 186 3415ft 80kts
13-Aug-19 16:49 33.579070 -117.880379 161 4228ft 85kts
13-Aug-19 16:50 33.568451 -117.853015 112 4882ft 106kts
13-Aug-19 16:51 33.557987 -117.816772 112 5005ft 119kts
13-Aug-19 16:52 33.546400 -117.779707 124 5005ft 117kts
13-Aug-19 16:53 33.525055 -117.750224 138 5007ft 116kts
13-Aug-19 16:54 33.501882 -117.722812 138 5009ft 116kts
13-Aug-19 16:55 33.478682 -117.695574 139 5012ft 116kts
13-Aug-19 16:56 33.455431 -117.668330 139 5015ft 117kts
13-Aug-19 16:57 33.431984 -117.640901 139 5019ft 117kts
13-Aug-19 16:58 33.408528 -117.613486 139 5021ft 117kts
13-Aug-19 16:59 33.385013 -117.586005 139 5021ft 118kts
13-Aug-19 17:00 33.361385 -117.558409 139 5018ft 118kts
13-Aug-19 17:02 33.337854 -117.530947 139 5015ft 117kts
13-Aug-19 17:03 33.314379 -117.503570 139 5012ft 117kts
13-Aug-19 17:04 33.290906 -117.476211 139 5008ft 117kts
13-Aug-19 17:05 33.267470 -117.448919 139 5006ft 117kts
13-Aug-19 17:06 33.244056 -117.421661 138 5005ft 117kts
13-Aug-19 17:07 33.240980 -117.382134 91 5002ft 123kts
13-Aug-19 17:08 33.241831 -117.340988 91 4999ft 123kts
13-Aug-19 17:09 33.242648 -117.300149 91 5001ft 122kts
13-Aug-19 17:10 33.243435 -117.259135 91 5004ft 123kts
13-Aug-19 17:11 33.244181 -117.218134 91 5006ft 123kts
13-Aug-19 17:12 33.244848 -117.177146 91 5009ft 123kts
13-Aug-19 17:13 33.245460 -117.135921 91 5011ft 123kts
13-Aug-19 17:14 33.246018 -117.094735 91 5014ft 124kts
13-Aug-19 17:15 33.246501 -117.053128 91 5017ft 125kts
13-Aug-19 17:16 33.246856 -117.011085 91 5020ft 126kts
13-Aug-19 17:17 33.228918 -116.990107 213 5020ft 108kts
13-Aug-19 17:18 33.205939 -117.012885 220 4678ft 105kts
13-Aug-19 17:19 33.183996 -117.034819 220 4070ft 101kts
13-Aug-19 17:20 33.164766 -117.058504 245 3516ft 95kts
13-Aug-19 17:21 33.158187 -117.089639 256 3537ft 98kts
13-Aug-19 17:22 33.152976 -117.122231 258 3152ft 93kts
13-Aug-19 17:22 33.149055 -117.147384 258 2639ft 93kts
13-Aug-19 17:24 33.143354 -117.183794 258 1940ft 99kts
13-Aug-19 17:25 33.138497 -117.214913 259 1393ft 84kts
13-Aug-19 17:25 33.135225 -117.237631 259 1013ft 74kts
13-Aug-19 17:27 33.130812 -117.263681 260 533ft 64kts
13-Aug-19 17:28 33.127943 -117.279459 227 335ft 10kts
13-Aug-19 17:28 33.127593 -117.279570 151 335ft 3kts
13-Aug-19 17:30 33.126164 -117.276984 283 335ft 0kts
13-Aug-19 17:30 33.126164 -117.276984 283 335ft 0kts

Navigation Log

Ident Type
Flight plan parsing failed, navigation log unavailable